Time;durP1;ratioP1;P1;durP2;ratioP2;P2;SDS_P1;SDS_P2;PMS_P1;PMS_P2;Temp;Humidity;BMP_temperature;BMP_pressure;BME280_temperature;BME280_humidity;BME280_pressure;Samples;Min_cycle;Max_cycle;Signal;HPM_P1;HPM_P2
2022/04/01 15:20:51;;;;;;;;;;;;;;;2.89;67.37;101064.78;6091711;23;2043131;-74
2022/04/01 15:23:16;;;;;;;;;;;;;;;2.87;66.39;101073.34;6127457;23;19923;-73
2022/04/01 15:25:42;;;;;;;;;;;;;;;2.81;67.24;101071.50;6103717;23;19919;-75
2022/04/01 15:28:07;;;;;;;;;;;;;;;2.66;67.77;101077.19;6102782;23;19936;-73
2022/04/01 15:30:33;;;;;;;;;;;;;;;2.63;68.23;101082.28;6127632;23;19956;-74
2022/04/01 15:32:58;;;;;;;;;;;;;;;2.62;68.16;101093.47;6128843;23;19913;-75
2022/04/01 15:35:24;;;;;;;;;;;;;;;2.64;67.83;101091.78;6103237;23;19987;-72
2022/04/01 15:37:52;;;;;;;;;;;;;;;2.64;67.99;101084.03;6128366;23;20257;-76
2022/04/01 15:40:19;;;;;;;;;;;;;;;2.61;67.04;101094.31;6127705;23;20278;-76
2022/04/01 15:42:46;;;;;;;;;;;;;;;2.61;67.16;101094.31;6125319;23;19919;-73
2022/04/01 15:45:12;;;;;;;;;;;;;;;2.66;67.61;101095.31;6127437;23;19909;-74
2022/04/01 15:47:40;;;;;;;;;;;;;;;2.75;67.87;101097.25;6103924;23;19931;-74
2022/04/01 15:50:05;;;;;;;;;;;;;;;2.80;67.41;101094.75;6128450;23;20402;-75
2022/04/01 15:52:32;;;;;;;;;;;;;;;2.74;67.15;101098.97;6103305;23;19913;-73
2022/04/01 15:54:57;;;;;;;;;;;;;;;2.72;67.08;101105.78;6128060;23;19987;-73
2022/04/01 15:57:24;;;;;;;;;;;;;;;2.64;67.82;101107.31;6104113;23;20279;-74
2022/04/01 15:59:49;;;;;;;;;;;;;;;2.62;68.31;101115.91;6128464;23;19915;-72
2022/04/01 16:02:34;;;;;;;;;;;;;;;2.60;67.64;101115.81;6104083;23;19916;-72
2022/04/01 16:05:01;;;;;;;;;;;;;;;2.62;67.69;101132.28;6128308;23;19912;-74
2022/04/01 16:07:31;;;;;;;;;;;;;;;2.62;67.83;101128.84;6126876;23;20315;-72
2022/04/01 16:10:04;;;;;;;;;;;;;;;2.46;68.73;101138.78;6128168;23;19916;-75
2022/04/01 16:12:30;;;;;;;;;;;;;;;2.43;68.89;101149.06;6127972;23;19909;-72
2022/04/01 16:14:57;;;;;;;;;;;;;;;2.39;68.25;101137.72;6128527;23;19912;-74
2022/04/01 16:17:22;;;;;;;;;;;;;;;2.31;69.44;101156.47;6128583;23;19994;-73
2022/04/01 16:19:50;;;;;;;;;;;;;;;2.27;69.68;101154.63;6104045;23;19917;-75
2022/04/01 16:22:17;;;;;;;;;;;;;;;2.17;69.80;101174.19;6126030;23;20370;-72
2022/04/01 16:24:43;;;;;;;;;;;;;;;2.12;70.07;101160.25;6127965;23;20287;-74
2022/04/01 16:27:09;;;;;;;;;;;;;;;2.15;70.00;101168.09;6127857;23;19928;-72
2022/04/01 16:29:34;;;;;;;;;;;;;;;2.04;69.66;101176.44;6128662;23;19919;-72
2022/04/01 16:31:59;;;;;;;;;;;;;;;2.08;70.11;101178.28;6103882;23;19925;-72
2022/04/01 16:34:25;;;;;;;;;;;;;;;1.92;70.57;101176.06;6128237;23;19909;-72
2022/04/01 16:36:51;;;;;;;;;;;;;;;1.90;70.28;101175.16;6126670;23;19914;-72
2022/04/01 16:39:16;;;;;;;;;;;;;;;1.91;70.99;101184.66;6127831;23;20331;-71
2022/04/01 16:41:42;;;;;;;;;;;;;;;1.89;70.36;101183.75;6103692;23;19916;-73
2022/04/01 16:44:07;;;;;;;;;;;;;;;1.89;70.93;101187.19;6128113;23;20310;-72
2022/04/01 16:46:32;;;;;;;;;;;;;;;1.88;71.18;101188.03;6103985;23;19967;-73
2022/04/01 16:48:57;;;;;;;;;;;;;;;1.87;70.63;101180.25;6128427;23;19913;-72
2022/04/01 16:51:23;;;;;;;;;;;;;;;1.81;70.61;101182.63;6102927;23;19963;-71
2022/04/01 16:53:48;;;;;;;;;;;;;;;1.79;70.46;101180.00;6102903;23;20326;-73
2022/04/01 16:56:15;;;;;;;;;;;;;;;1.78;71.17;101185.13;6103705;23;19967;-72
2022/04/01 16:58:40;;;;;;;;;;;;;;;1.72;71.39;101193.56;6102639;23;20470;-73
2022/04/01 17:01:05;;;;;;;;;;;;;;;1.76;71.20;101189.38;6102201;23;19951;-72
2022/04/01 17:03:30;;;;;;;;;;;;;;;1.79;71.37;101190.34;6102892;23;19988;-72
2022/04/01 17:14:08;;;;;;;;;;;;;;;1.71;71.57;101208.22;6130399;23;19918;-71
2022/04/01 17:16:34;;;;;;;;;;;;;;;1.67;72.06;101206.34;6126451;23;19991;-72
2022/04/01 17:18:59;;;;;;;;;;;;;;;1.63;72.24;101208.81;6102660;23;20382;-72
2022/04/01 17:21:25;;;;;;;;;;;;;;;1.71;71.99;101217.66;6101802;23;19931;-73
2022/04/01 17:23:51;;;;;;;;;;;;;;;1.61;71.65;101220.78;6101454;23;19928;-72
2022/04/01 17:26:16;;;;;;;;;;;;;;;1.61;72.05;101223.38;6126159;23;19940;-72
2022/04/01 17:28:41;;;;;;;;;;;;;;;1.57;72.14;101217.25;6101339;23;19967;-71
2022/04/01 17:31:07;;;;;;;;;;;;;;;1.54;72.67;101219.75;6102660;23;19951;-70
2022/04/01 17:33:34;;;;;;;;;;;;;;;1.53;72.47;101220.56;6126970;23;19909;-70
2022/04/01 17:36:01;;;;;;;;;;;;;;;1.51;73.06;101220.50;6127619;23;19955;-72
2022/04/01 17:38:28;;;;;;;;;;;;;;;1.51;72.72;101219.66;6127833;23;20335;-74
2022/04/01 17:40:57;;;;;;;;;;;;;;;1.43;73.48;101215.94;6127976;23;19920;-70
2022/04/01 17:43:24;;;;;;;;;;;;;;;1.37;73.74;101225.22;6127779;23;19909;-71
2022/04/01 17:45:49;;;;;;;;;;;;;;;1.34;73.53;101226.84;6104519;23;19917;-71
2022/04/01 17:48:15;;;;;;;;;;;;;;;1.30;74.06;101227.59;6104285;23;19967;-71
2022/04/01 17:50:40;;;;;;;;;;;;;;;1.29;73.88;101231.84;6103369;23;19931;-71
2022/04/01 17:53:05;;;;;;;;;;;;;;;1.31;74.01;101235.38;6103249;23;19917;-74
2022/04/01 17:55:35;;;;;;;;;;;;;;;1.21;74.33;101230.75;6127940;23;20009;-72
2022/04/01 17:58:04;;;;;;;;;;;;;;;1.18;74.28;101247.00;6128085;23;19912;-72
2022/04/01 18:00:30;;;;;;;;;;;;;;;1.18;75.19;101243.56;6104092;23;19927;-72
2022/04/01 18:02:56;;;;;;;;;;;;;;;1.11;74.70;101250.22;6103705;23;19908;-73
2022/04/01 18:05:22;;;;;;;;;;;;;;;1.07;74.85;101252.63;6127260;23;20295;-72
2022/04/01 18:07:49;;;;;;;;;;;;;;;1.04;76.62;101259.44;6128269;23;19936;-72
2022/04/01 18:10:15;;;;;;;;;;;;;;;0.97;75.77;101257.47;6126659;23;19936;-71
2022/04/01 18:12:40;;;;;;;;;;;;;;;0.94;75.32;101261.66;6127904;23;19951;-71
2022/04/01 18:15:07;;;;;;;;;;;;;;;0.91;76.07;101266.72;6104046;23;19925;-71
2022/04/01 18:17:33;;;;;;;;;;;;;;;0.86;75.63;101269.13;6128084;23;19909;-72
2022/04/01 18:19:59;;;;;;;;;;;;;;;0.78;75.74;101270.59;6128335;23;19919;-72
2022/04/01 18:22:24;;;;;;;;;;;;;;;0.74;75.88;101268.72;6126544;23;19917;-72
2022/04/01 18:27:33;;;;;;;;;;;;;;;0.65;76.47;101272.72;6131862;23;19983;-72
2022/04/01 18:30:00;;;;;;;;;;;;;;;0.61;76.92;101283.75;6128656;23;20243;-70
2022/04/01 18:32:29;;;;;;;;;;;;;;;0.65;76.91;101282.16;6127657;23;19912;-72
2022/04/01 18:34:58;;;;;;;;;;;;;;;0.65;76.50;101285.63;6128147;23;19909;-71
2022/04/01 18:37:26;;;;;;;;;;;;;;;0.59;76.78;101295.72;6102997;23;19920;-72
2022/04/01 18:39:53;;;;;;;;;;;;;;;0.57;76.38;101294.75;6127894;23;19920;-72
2022/04/01 18:42:19;;;;;;;;;;;;;;;0.54;76.40;101297.25;6127371;23;19909;-72
2022/04/01 18:44:44;;;;;;;;;;;;;;;0.51;76.88;101305.72;6103641;23;19913;-71
2022/04/01 18:47:10;;;;;;;;;;;;;;;0.55;77.25;101306.75;6126943;23;19912;-71
2022/04/01 18:49:36;;;;;;;;;;;;;;;0.55;76.66;101308.41;6128087;23;19917;-71
2022/04/01 18:52:01;;;;;;;;;;;;;;;0.53;76.96;101313.53;6102832;23;20302;-72
2022/04/01 18:54:27;;;;;;;;;;;;;;;0.51;76.55;101307.44;6127082;23;20318;-72
2022/04/01 18:56:54;;;;;;;;;;;;;;;0.50;76.71;101306.59;6127164;23;19912;-71
2022/04/01 18:59:24;;;;;;;;;;;;;;;0.50;76.54;101310.84;6103492;23;19999;-72
2022/04/01 19:01:56;;;;;;;;;;;;;;;0.50;76.86;101319.47;6127099;23;20303;-71
2022/04/01 19:04:42;;;;;;;;;;;;;;;0.48;76.84;101312.50;6127945;23;19908;-72
2022/04/01 19:07:14;;;;;;;;;;;;;;;0.47;77.15;101324.50;6101622;23;20219;-72
2022/04/01 19:09:59;;;;;;;;;;;;;;;0.47;77.21;101328.78;6126742;23;19917;-72
2022/04/01 19:12:26;;;;;;;;;;;;;;;0.46;77.28;101335.66;6126835;23;20247;-72
2022/04/01 19:14:55;;;;;;;;;;;;;;;0.47;77.28;101334.81;6128012;23;20005;-72
2022/04/01 19:17:23;;;;;;;;;;;;;;;0.48;77.65;101338.28;6127186;23;19913;-72
2022/04/01 19:19:49;;;;;;;;;;;;;;;0.47;76.94;101327.06;6154074;23;19913;-72
2022/04/01 19:22:16;;;;;;;;;;;;;;;0.49;77.46;101340.06;6102677;23;20003;-73
2022/04/01 19:24:48;;;;;;;;;;;;;;;0.50;76.78;101332.38;6102520;23;19944;-72
2022/04/01 19:27:15;;;;;;;;;;;;;;;0.50;77.15;101336.63;6124846;23;20035;-73
2022/04/01 19:29:40;;;;;;;;;;;;;;;0.51;77.36;101343.56;6123649;23;20189;-73
2022/04/01 19:32:06;;;;;;;;;;;;;;;0.50;77.83;101353.00;6102165;23;20010;-73
2022/04/01 19:34:31;;;;;;;;;;;;;;;0.51;76.88;101347.00;6102157;23;19916;-73
2022/04/01 19:36:57;;;;;;;;;;;;;;;0.51;77.43;101346.13;6101993;23;20373;-73
2022/04/01 19:39:25;;;;;;;;;;;;;;;0.53;77.21;101349.63;6125734;23;19950;-73
2022/04/01 19:41:51;;;;;;;;;;;;;;;0.54;77.05;101359.13;6102585;23;20347;-72
2022/04/01 19:44:17;;;;;;;;;;;;;;;0.54;77.38;101358.25;6126220;23;19944;-73
2022/04/01 19:46:42;;;;;;;;;;;;;;;0.54;77.64;101361.72;6102426;23;19935;-73
2022/04/01 19:49:08;;;;;;;;;;;;;;;0.53;77.43;101357.38;6102066;23;19924;-73
2022/04/01 19:51:33;;;;;;;;;;;;;;;0.53;77.71;101367.69;6101842;23;19916;-73
2022/04/01 19:53:58;;;;;;;;;;;;;;;0.54;78.28;101361.72;6101273;23;20027;-72
2022/04/01 19:56:24;;;;;;;;;;;;;;;0.54;77.46;101369.44;6101938;23;19916;-72
2022/04/01 19:58:49;;;;;;;;;;;;;;;0.54;78.10;101376.31;6101561;23;19967;-72
2022/04/01 20:01:15;;;;;;;;;;;;;;;0.52;77.39;101381.41;6102528;23;19939;-72
2022/04/01 20:03:40;;;;;;;;;;;;;;;0.50;78.12;101377.88;6101659;23;19951;-73
2022/04/01 20:06:06;;;;;;;;;;;;;;;0.53;77.96;101378.00;6126094;23;19912;-73
2022/04/01 20:08:31;;;;;;;;;;;;;;;0.51;78.05;101375.38;6125863;23;19987;-72
2022/04/01 20:10:56;;;;;;;;;;;;;;;0.54;77.78;101368.59;6126426;23;19939;-72
2022/04/01 20:13:27;;;;;;;;;;;;;;;0.57;77.75;101368.69;6101861;23;19920;-72
2022/04/01 20:15:53;;;;;;;;;;;;;;;0.55;77.72;101371.22;6102647;23;19929;-73
2022/04/01 20:18:18;;;;;;;;;;;;;;;0.63;77.47;101369.81;6102117;23;19940;-71
2022/04/01 20:20:43;;;;;;;;;;;;;;;0.59;76.94;101378.25;6126220;23;20208;-72
2022/04/01 20:23:09;;;;;;;;;;;;;;;0.70;76.03;101376.06;6126366;23;19920;-72
2022/04/01 20:25:34;;;;;;;;;;;;;;;0.75;75.39;101383.97;6126656;23;20055;-71
2022/04/01 20:28:00;;;;;;;;;;;;;;;0.83;74.29;101373.13;6126092;23;19922;-73
2022/04/01 20:30:25;;;;;;;;;;;;;;;0.87;74.58;101379.25;6102047;23;19927;-72
2022/04/01 20:32:51;;;;;;;;;;;;;;;0.88;74.43;101388.78;6101954;23;19920;-74
2022/04/01 20:35:17;;;;;;;;;;;;;;;0.99;74.40;101384.88;6101881;23;19944;-73
2022/04/01 20:37:42;;;;;;;;;;;;;;;0.93;74.20;101387.22;6126380;23;19908;-72
2022/04/01 20:40:08;;;;;;;;;;;;;;;0.91;74.34;101381.13;6102700;23;20234;-72
2022/04/01 20:42:34;;;;;;;;;;;;;;;0.92;73.06;101382.91;6100837;23;19916;-72
2022/04/01 20:45:00;;;;;;;;;;;;;;;0.91;73.65;101382.84;6102704;23;19913;-72
2022/04/01 20:47:26;;;;;;;;;;;;;;;0.93;73.40;101383.78;6125946;23;19913;-73
2022/04/01 20:49:54;;;;;;;;;;;;;;;0.92;73.37;101380.31;6102136;23;19924;-72
2022/04/01 20:52:19;;;;;;;;;;;;;;;0.95;72.92;101385.59;6101993;23;19920;-72
2022/04/01 20:54:47;;;;;;;;;;;;;;;1.02;72.99;101386.66;6126373;23;19908;-74
2022/04/01 20:57:13;;;;;;;;;;;;;;;0.95;73.19;101387.28;6102675;23;19947;-73
2022/04/01 20:59:38;;;;;;;;;;;;;;;1.03;72.32;101391.91;6126616;23;19908;-73
2022/04/01 21:02:04;;;;;;;;;;;;;;;0.98;72.56;101383.13;6102547;23;19913;-72
2022/04/01 21:04:29;;;;;;;;;;;;;;;0.98;72.85;101385.69;6126073;23;19932;-74
2022/04/01 21:06:55;;;;;;;;;;;;;;;0.99;72.34;101395.22;6101348;23;19916;-73
2022/04/01 21:09:21;;;;;;;;;;;;;;;1.00;72.56;101386.63;6126246;23;19913;-71
2022/04/01 21:11:49;;;;;;;;;;;;;;;0.95;72.54;101385.59;6104072;23;20302;-72
2022/04/01 21:14:14;;;;;;;;;;;;;;;0.98;72.33;101388.28;6128538;23;20374;-74
2022/04/01 21:16:40;;;;;;;;;;;;;;;1.08;72.10;101388.59;6103486;23;19916;-74
2022/04/01 21:19:05;;;;;;;;;;;;;;;1.01;71.60;101390.09;6105124;23;20250;-71
2022/04/01 21:21:32;;;;;;;;;;;;;;;1.00;72.05;101394.34;6104105;23;19924;-72
2022/04/01 21:23:58;;;;;;;;;;;;;;;0.99;71.56;101399.47;6103760;23;19995;-72
2022/04/01 21:29:07;;;;;;;;;;;;;;;1.03;71.68;101391.91;6154469;23;20011;-74
2022/04/01 21:31:32;;;;;;;;;;;;;;;1.00;71.43;101390.91;6104343;23;19913;-74
2022/04/01 21:33:58;;;;;;;;;;;;;;;0.95;71.99;101398.50;6128955;23;19909;-73
2022/04/01 21:36:23;;;;;;;;;;;;;;;0.94;71.87;101399.31;6103931;23;20264;-74
2022/04/01 21:38:49;;;;;;;;;;;;;;;0.89;71.88;101400.84;6104034;23;19919;-73
2022/04/01 21:41:14;;;;;;;;;;;;;;;0.92;71.15;101393.22;6104766;23;19935;-73
2022/04/01 21:43:40;;;;;;;;;;;;;;;0.93;70.98;101391.50;6103890;23;20238;-74
2022/04/01 21:46:06;;;;;;;;;;;;;;;0.92;70.79;101398.38;6105030;23;19919;-72
2022/04/01 21:48:32;;;;;;;;;;;;;;;0.91;70.61;101391.47;6104361;23;20331;-73
2022/04/01 21:50:57;;;;;;;;;;;;;;;0.95;70.85;101388.16;6104024;23;19991;-74
2022/04/01 21:53:22;;;;;;;;;;;;;;;0.95;70.62;101393.34;6128520;23;19971;-71
2022/04/01 21:55:48;;;;;;;;;;;;;;;0.93;70.55;101399.25;6104034;23;19917;-73
2022/04/01 21:58:13;;;;;;;;;;;;;;;0.91;70.96;101394.03;6104128;23;19944;-72
2022/04/01 22:00:40;;;;;;;;;;;;;;;0.88;70.51;101396.50;6104771;23;19912;-72
2022/04/01 22:03:06;;;;;;;;;;;;;;;0.88;69.57;101387.88;6129155;23;20339;-72
2022/04/01 22:05:33;;;;;;;;;;;;;;;0.89;70.41;101394.81;6104617;23;19954;-72
2022/04/01 22:07:59;;;;;;;;;;;;;;;0.85;70.32;101401.56;6128876;23;19995;-73
2022/04/01 22:10:24;;;;;;;;;;;;;;;0.86;70.46;101398.13;6104336;23;19955;-73
2022/04/01 22:12:49;;;;;;;;;;;;;;;0.86;69.44;101399.03;6128447;23;19909;-73
2022/04/01 22:15:15;;;;;;;;;;;;;;;0.89;69.65;101407.69;6129088;23;19909;-74
2022/04/01 22:17:40;;;;;;;;;;;;;;;0.89;69.82;101400.84;6103345;23;19912;-73
2022/04/01 22:20:06;;;;;;;;;;;;;;;0.87;69.85;101405.06;6104270;23;19908;-76
2022/04/01 22:22:31;;;;;;;;;;;;;;;0.82;69.68;101406.59;6101187;23;19920;-73
2022/04/01 22:24:57;;;;;;;;;;;;;;;0.80;69.68;101410.81;6102567;23;19991;-72
2022/04/01 22:27:22;;;;;;;;;;;;;;;0.77;70.22;101403.84;6125735;23;19943;-74
2022/04/01 22:29:48;;;;;;;;;;;;;;;0.75;70.16;101414.91;6125521;23;20610;-73
2022/04/01 22:32:14;;;;;;;;;;;;;;;0.73;70.31;101411.41;6125415;23;19915;-73
2022/04/01 22:34:39;;;;;;;;;;;;;;;0.69;70.59;101405.28;6127305;23;19908;-73
2022/04/01 22:37:05;;;;;;;;;;;;;;;0.66;70.36;101411.19;6128063;23;19944;-73
2022/04/01 22:39:31;;;;;;;;;;;;;;;0.65;70.93;101414.59;6102837;23;19943;-73
2022/04/01 22:41:56;;;;;;;;;;;;;;;0.65;70.51;101414.59;6127097;23;19916;-74
2022/04/01 22:44:22;;;;;;;;;;;;;;;0.62;70.21;101423.94;6102853;23;19917;-75
2022/04/01 22:46:47;;;;;;;;;;;;;;;0.60;70.49;101429.00;6103325;23;19917;-74
2022/04/01 22:49:13;;;;;;;;;;;;;;;0.56;70.52;101424.56;6128025;23;20191;-74
2022/04/01 22:54:23;;;;;;;;;;;;;;;0.51;70.57;101432.09;6130846;23;19974;-74
2022/04/01 22:56:48;;;;;;;;;;;;;;;0.49;70.41;101430.31;6127623;23;20295;-74
2022/04/01 22:59:14;;;;;;;;;;;;;;;0.46;70.27;101430.16;6101949;23;19991;-74
2022/04/01 23:01:39;;;;;;;;;;;;;;;0.45;70.53;101434.44;6126626;23;20242;-74
2022/04/01 23:04:06;;;;;;;;;;;;;;;0.43;70.55;101432.63;6103651;23;19912;-75
2022/04/01 23:06:32;;;;;;;;;;;;;;;0.42;71.31;101438.63;6127932;23;19912;-74
2022/04/01 23:08:57;;;;;;;;;;;;;;;0.41;71.18;101435.16;6102116;23;19913;-74
2022/04/01 23:11:24;;;;;;;;;;;;;;;0.40;70.98;101438.53;6128242;23;19912;-73
2022/04/01 23:13:49;;;;;;;;;;;;;;;0.38;70.94;101440.19;6126894;23;19908;-74
2022/04/01 23:16:15;;;;;;;;;;;;;;;0.37;70.78;101440.13;6127988;23;19905;-74
2022/04/01 23:18:40;;;;;;;;;;;;;;;0.35;71.14;101434.91;6103268;23;20055;-75
2022/04/01 23:21:07;;;;;;;;;;;;;;;0.36;70.75;101440.94;6102596;23;20089;-73
2022/04/01 23:23:32;;;;;;;;;;;;;;;0.33;70.78;101436.53;6103070;23;19913;-74
2022/04/01 23:25:58;;;;;;;;;;;;;;;0.33;70.93;101441.69;6103169;23;19919;-74
2022/04/01 23:28:24;;;;;;;;;;;;;;;0.29;70.80;101438.13;6102740;23;19917;-73
2022/04/01 23:30:50;;;;;;;;;;;;;;;0.28;70.98;101443.22;6101913;23;19925;-75
2022/04/01 23:33:15;;;;;;;;;;;;;;;0.27;71.49;101436.31;6127690;23;19916;-74
2022/04/01 23:35:41;;;;;;;;;;;;;;;0.29;71.55;101439.84;6127867;23;19920;-73
2022/04/01 23:38:06;;;;;;;;;;;;;;;0.25;71.09;101433.66;6102919;23;19913;-75
2022/04/01 23:40:32;;;;;;;;;;;;;;;0.26;71.37;101434.53;6101752;23;19995;-74
2022/04/01 23:42:57;;;;;;;;;;;;;;;0.23;71.34;101448.19;6101766;23;19917;-74
2022/04/01 23:45:33;;;;;;;;;;;;;;;0.24;71.18;101447.38;6102562;23;19916;-73
2022/04/01 23:47:58;;;;;;;;;;;;;;;0.22;71.25;101430.09;6129425;23;19916;-75
2022/04/01 23:50:23;;;;;;;;;;;;;;;0.21;71.59;101434.34;6103304;23;19948;-75
2022/04/01 23:52:49;;;;;;;;;;;;;;;0.19;71.06;101438.59;6126297;23;19912;-74
2022/04/01 23:55:14;;;;;;;;;;;;;;;0.19;71.02;101442.84;6126927;23;20366;-73
2022/04/01 23:57:40;;;;;;;;;;;;;;;0.17;71.20;101446.25;6125556;23;19939;-75
